Time;durP1;ratioP1;P1;durP2;ratioP2;P2;SDS_P1;SDS_P2;PMS_P1;PMS_P2;Temp;Humidity;BMP_temperature;BMP_pressure;BME280_temperature;BME280_humidity;BME280_pressure;Samples;Min_cycle;Max_cycle;Signal;HPM_P1;HPM_P2
2023/05/02 00:00:28;;;;;;;8.03;7.23;;;9.90;99.90;;;;;;5016888;28;20216;-76
2023/05/02 00:02:55;;;;;;;9.80;8.80;;;9.90;99.90;;;;;;5016241;28;20282;-77
2023/05/02 00:05:22;;;;;;;7.40;6.70;;;9.80;99.90;;;;;;5016129;28;20201;-77
2023/05/02 00:07:49;;;;;;;6.30;5.70;;;9.80;99.90;;;;;;5016200;28;20584;-77
2023/05/02 00:10:16;;;;;;;7.07;6.20;;;9.80;99.90;;;;;;4998278;28;20200;-77
2023/05/02 00:12:43;;;;;;;7.30;6.27;;;9.80;99.90;;;;;;5016289;28;20208;-77
2023/05/02 00:15:10;;;;;;;6.80;6.20;;;9.80;99.90;;;;;;4995826;28;20579;-76
2023/05/02 00:17:40;;;;;;;7.30;6.60;;;9.70;99.90;;;;;;5003976;28;20341;-77
2023/05/02 00:20:08;;;;;;;7.73;6.93;;;9.70;99.90;;;;;;4995750;28;20208;-77
2023/05/02 00:22:35;;;;;;;7.13;6.40;;;9.60;99.90;;;;;;5015750;28;20193;-77
2023/05/02 00:25:02;;;;;;;7.27;6.57;;;9.60;99.90;;;;;;4999484;28;20287;-77
2023/05/02 00:27:30;;;;;;;8.57;7.50;;;9.60;99.90;;;;;;5006050;28;20637;-76
2023/05/02 00:29:58;;;;;;;8.27;7.47;;;9.50;99.90;;;;;;5015068;28;20215;-77
2023/05/02 00:32:25;;;;;;;8.80;7.90;;;9.50;99.90;;;;;;5016599;28;20201;-77
2023/05/02 00:34:53;;;;;;;7.67;6.87;;;9.50;99.90;;;;;;4998308;28;20240;-77
2023/05/02 00:37:20;;;;;;;9.97;7.63;;;9.50;99.90;;;;;;4997914;28;20220;-77
2023/05/02 00:39:47;;;;;;;8.37;7.57;;;9.40;99.90;;;;;;4997516;28;20220;-77
2023/05/02 00:42:14;;;;;;;8.40;7.50;;;9.40;99.90;;;;;;5014249;28;20224;-78
2023/05/02 00:44:41;;;;;;;9.03;7.27;;;9.40;99.90;;;;;;4997935;28;20196;-77
2023/05/02 00:47:07;;;;;;;8.70;7.23;;;9.40;99.90;;;;;;5018106;28;20224;-77
2023/05/02 00:49:34;;;;;;;7.37;6.67;;;9.40;99.90;;;;;;5000769;28;20193;-77
2023/05/02 00:52:02;;;;;;;7.63;6.60;;;9.40;99.90;;;;;;5013977;28;20258;-77
2023/05/02 00:54:31;;;;;;;8.03;7.20;;;9.30;99.90;;;;;;5014728;28;20200;-77
2023/05/02 00:56:58;;;;;;;8.93;6.93;;;9.30;99.90;;;;;;4999525;28;20230;-77
2023/05/02 00:59:26;;;;;;;7.87;7.07;;;9.30;99.90;;;;;;5001820;28;20591;-77
2023/05/02 01:02:00;;;;;;;8.33;7.10;;;9.20;99.90;;;;;;5014440;28;20204;-77
2023/05/02 01:04:36;;;;;;;8.67;7.10;;;9.20;99.90;;;;;;5001874;28;20676;-77
2023/05/02 01:07:21;;;;;;;9.33;8.53;;;9.20;99.90;;;;;;4995160;28;20696;-77
2023/05/02 01:09:57;;;;;;;10.23;9.33;;;9.10;99.90;;;;;;4997323;28;20609;-77
2023/05/02 01:12:28;;;;;;;11.63;10.63;;;9.10;99.90;;;;;;5015128;28;20196;-77
2023/05/02 01:14:57;;;;;;;11.17;10.27;;;9.10;99.90;;;;;;5014933;28;20280;-76
2023/05/02 01:17:27;;;;;;;11.43;10.53;;;9.00;99.90;;;;;;4998573;28;20220;-77
2023/05/02 01:19:57;;;;;;;11.90;10.93;;;9.00;99.90;;;;;;5001343;28;20770;-78
2023/05/02 01:22:28;;;;;;;11.60;10.70;;;9.10;99.90;;;;;;5016543;28;20192;-77
2023/05/02 01:25:04;;;;;;;10.80;9.90;;;9.00;99.90;;;;;;4997278;28;20295;-77
2023/05/02 01:27:40;;;;;;;11.13;10.33;;;9.10;99.90;;;;;;5015738;28;20227;-76
2023/05/02 01:30:11;;;;;;;10.00;9.20;;;9.10;99.90;;;;;;4997104;28;20262;-77
2023/05/02 01:32:41;;;;;;;9.73;8.93;;;9.00;99.90;;;;;;4996293;28;20204;-77
2023/05/02 01:35:10;;;;;;;11.03;10.03;;;9.00;99.90;;;;;;4991653;28;20429;-76
2023/05/02 01:37:38;;;;;;;11.57;10.63;;;9.00;99.90;;;;;;4997281;28;20246;-77
2023/05/02 01:40:08;;;;;;;12.43;11.37;;;9.00;99.90;;;;;;4999224;28;20259;-77
2023/05/02 01:42:37;;;;;;;12.00;11.00;;;9.00;99.90;;;;;;4993965;28;20299;-76
2023/05/02 01:45:06;;;;;;;12.20;11.27;;;9.00;99.90;;;;;;4997565;28;20646;-77
2023/05/02 01:47:37;;;;;;;12.43;11.47;;;9.00;99.90;;;;;;4998601;28;20639;-77
2023/05/02 01:50:08;;;;;;;12.37;11.47;;;9.00;99.90;;;;;;5014635;28;20200;-76
2023/05/02 01:52:37;;;;;;;13.37;12.23;;;9.00;99.90;;;;;;4997235;28;20577;-76
2023/05/02 01:55:06;;;;;;;12.33;11.43;;;9.00;99.90;;;;;;4997174;28;20266;-77
2023/05/02 01:57:33;;;;;;;12.20;11.30;;;9.00;99.90;;;;;;4998231;28;20299;-77
2023/05/02 02:00:03;;;;;;;11.60;10.70;;;9.00;99.90;;;;;;4995891;28;20223;-77
2023/05/02 02:02:42;;;;;;;12.43;11.47;;;9.10;99.90;;;;;;5013616;28;20227;-77
2023/05/02 02:05:10;;;;;;;11.97;11.00;;;9.00;99.90;;;;;;4995937;28;20212;-77
2023/05/02 02:07:37;;;;;;;11.73;10.83;;;9.10;99.90;;;;;;4995749;28;20224;-77
2023/05/02 02:10:05;;;;;;;11.87;10.97;;;9.10;99.90;;;;;;5014063;28;20199;-77
2023/05/02 02:12:38;;;;;;;12.23;11.33;;;9.10;99.90;;;;;;4996094;28;20712;-77
2023/05/02 02:15:13;;;;;;;11.80;11.00;;;9.10;99.90;;;;;;5011310;28;20200;-77
2023/05/02 02:17:45;;;;;;;11.50;10.60;;;9.00;99.90;;;;;;5013867;28;20212;-77
2023/05/02 02:20:14;;;;;;;12.30;11.40;;;9.00;99.90;;;;;;5012861;28;20184;-77
2023/05/02 02:22:43;;;;;;;11.30;10.40;;;9.00;99.90;;;;;;4995808;28;20684;-77
2023/05/02 02:25:13;;;;;;;12.10;11.20;;;8.90;99.90;;;;;;5014021;28;20188;-77
2023/05/02 02:27:40;;;;;;;12.23;11.33;;;8.80;99.90;;;;;;5013810;28;20216;-77
2023/05/02 02:30:09;;;;;;;12.87;11.87;;;8.70;99.90;;;;;;4997854;28;20222;-78
2023/05/02 02:32:36;;;;;;;12.53;11.63;;;8.70;99.90;;;;;;5011507;28;20263;-76
2023/05/02 02:35:05;;;;;;;12.70;11.80;;;8.60;99.90;;;;;;5012822;28;20684;-76
2023/05/02 02:37:34;;;;;;;13.93;12.93;;;8.60;99.90;;;;;;5013044;28;20220;-77
2023/05/02 02:40:17;;;;;;;14.67;13.67;;;8.50;99.90;;;;;;5004196;28;20250;-78
2023/05/02 02:42:51;;;;;;;9.07;8.17;;;8.40;99.90;;;;;;4995432;28;20200;-77
2023/05/02 02:45:29;;;;;;;9.67;8.97;;;8.40;99.90;;;;;;5012326;28;20192;-78
2023/05/02 02:48:09;;;;;;;8.57;7.87;;;8.40;99.90;;;;;;4995331;28;20244;-77
2023/05/02 02:50:46;;;;;;;9.30;8.60;;;8.40;99.90;;;;;;4995319;28;20550;-79
2023/05/02 02:53:20;;;;;;;9.80;8.97;;;8.30;99.90;;;;;;5013433;28;20235;-80
2023/05/02 02:55:57;;;;;;;9.97;9.17;;;8.30;99.90;;;;;;5001384;28;20229;-80
2023/05/02 02:58:34;;;;;;;10.03;9.23;;;8.20;99.90;;;;;;5009851;28;20316;-79
2023/05/02 03:01:05;;;;;;;11.10;10.10;;;8.20;99.90;;;;;;4997613;28;20590;-79
2023/05/02 03:03:33;;;;;;;10.53;9.70;;;8.20;99.90;;;;;;4995276;28;20204;-79
2023/05/02 03:06:03;;;;;;;11.33;10.43;;;8.20;99.90;;;;;;5007774;28;20250;-79
2023/05/02 03:08:39;;;;;;;10.00;9.20;;;8.10;99.90;;;;;;5012107;28;20788;-80
2023/05/02 03:11:07;;;;;;;10.27;9.47;;;8.10;99.90;;;;;;5009568;28;20287;-80
2023/05/02 03:13:34;;;;;;;10.43;9.53;;;8.10;99.90;;;;;;4994313;28;20559;-80
2023/05/02 03:16:31;;;;;;;9.67;8.87;;;8.10;99.90;;;;;;5015703;28;20203;-79
2023/05/02 03:18:58;;;;;;;8.80;8.00;;;8.00;99.90;;;;;;5015075;28;20278;-78
2023/05/02 03:21:27;;;;;;;8.50;7.70;;;8.00;99.90;;;;;;5001288;28;20246;-80
2023/05/02 03:23:55;;;;;;;8.83;8.03;;;8.00;99.90;;;;;;4999306;28;20203;-81
2023/05/02 03:26:22;;;;;;;10.27;9.40;;;7.90;99.90;;;;;;5015747;28;20703;-80
2023/05/02 03:28:50;;;;;;;10.17;9.37;;;7.90;99.90;;;;;;4999870;28;20307;-80
2023/05/02 03:31:22;;;;;;;11.53;10.53;;;7.90;99.90;;;;;;5002086;28;20201;-81
2023/05/02 03:33:50;;;;;;;9.50;8.70;;;8.00;99.90;;;;;;5004921;28;20255;-81
2023/05/02 03:36:17;;;;;;;9.63;8.73;;;7.90;99.90;;;;;;5000884;28;20196;-81
2023/05/02 03:38:45;;;;;;;8.50;7.20;;;7.90;99.90;;;;;;5002624;28;20226;-81
2023/05/02 03:41:13;;;;;;;8.40;7.63;;;7.80;99.90;;;;;;4994962;28;20205;-81
2023/05/02 03:43:41;;;;;;;7.63;6.93;;;7.80;99.90;;;;;;4994898;28;20204;-80
2023/05/02 03:46:10;;;;;;;9.77;7.77;;;7.80;99.90;;;;;;4999146;28;20200;-79
2023/05/02 03:48:40;;;;;;;9.03;8.17;;;7.80;99.90;;;;;;5004875;28;20311;-80
2023/05/02 03:51:08;;;;;;;8.50;7.70;;;7.80;99.90;;;;;;4987705;28;20224;-80
2023/05/02 03:53:40;;;;;;;8.17;7.37;;;7.70;99.90;;;;;;5012626;28;20196;-80
2023/05/02 03:56:09;;;;;;;8.63;7.83;;;7.80;99.90;;;;;;5001108;28;20204;-82
2023/05/02 03:58:46;;;;;;;9.27;8.30;;;7.80;99.90;;;;;;4996282;28;20212;-80
2023/05/02 04:01:15;;;;;;;8.30;7.50;;;7.90;99.90;;;;;;4993558;28;20295;-81
2023/05/02 04:03:43;;;;;;;8.97;8.07;;;8.00;99.90;;;;;;5009963;28;20205;-79
2023/05/02 04:06:11;;;;;;;9.20;8.20;;;8.00;99.90;;;;;;4994038;28;20207;-81
2023/05/02 04:08:40;;;;;;;8.03;7.27;;;8.00;99.90;;;;;;5001207;28;20579;-81
2023/05/02 04:11:07;;;;;;;8.17;7.37;;;8.10;99.90;;;;;;4993705;28;20263;-81
2023/05/02 04:13:36;;;;;;;8.87;8.07;;;8.20;99.90;;;;;;4993673;28;20201;-80
2023/05/02 04:16:04;;;;;;;10.30;9.23;;;8.30;99.90;;;;;;4993371;28;20201;-80
2023/05/02 04:18:34;;;;;;;9.97;8.97;;;8.30;99.90;;;;;;4994882;28;20217;-81
2023/05/02 04:21:02;;;;;;;10.27;8.43;;;8.40;99.90;;;;;;5010512;28;20633;-79
2023/05/02 04:23:29;;;;;;;9.23;8.23;;;8.40;99.90;;;;;;5010709;28;20469;-80
2023/05/02 04:26:00;;;;;;;9.77;8.87;;;8.40;99.90;;;;;;5001993;28;20219;-79
2023/05/02 04:28:36;;;;;;;10.97;9.43;;;8.50;99.90;;;;;;4995693;28;20255;-78
2023/05/02 04:31:04;;;;;;;11.03;10.03;;;8.60;99.90;;;;;;5008091;28;20214;-77
2023/05/02 04:33:32;;;;;;;9.37;8.57;;;8.70;99.90;;;;;;4997157;28;20635;-79
2023/05/02 04:36:00;;;;;;;9.80;8.80;;;8.70;99.90;;;;;;4993614;28;20216;-78
2023/05/02 04:38:27;;;;;;;12.03;10.40;;;8.80;99.90;;;;;;4995306;28;20248;-79
2023/05/02 04:40:54;;;;;;;10.57;9.47;;;8.80;99.90;;;;;;4996596;28;20266;-79
2023/05/02 04:43:29;;;;;;;10.07;9.17;;;8.80;99.90;;;;;;5006098;28;20543;-80
2023/05/02 04:46:01;;;;;;;10.97;9.87;;;8.90;99.90;;;;;;5016370;28;20743;-78
2023/05/02 04:48:32;;;;;;;10.17;9.17;;;8.90;99.90;;;;;;4998707;28;20227;-78
2023/05/02 04:50:59;;;;;;;11.23;10.13;;;9.00;99.90;;;;;;5001322;28;20207;-79
2023/05/02 04:53:27;;;;;;;11.83;10.67;;;9.10;99.90;;;;;;5004177;28;20218;-78
2023/05/02 04:55:54;;;;;;;13.67;12.40;;;9.10;99.90;;;;;;5001798;28;20250;-79
2023/05/02 04:58:21;;;;;;;13.47;12.37;;;9.20;99.90;;;;;;5015630;28;20219;-78
2023/05/02 05:00:54;;;;;;;11.80;10.60;;;9.20;99.90;;;;;;4998300;28;20205;-79
2023/05/02 05:03:23;;;;;;;11.03;10.03;;;9.20;99.90;;;;;;5004934;28;20248;-79
2023/05/02 05:05:50;;;;;;;12.40;11.33;;;9.30;99.90;;;;;;4998592;28;20197;-79
2023/05/02 05:08:19;;;;;;;12.47;11.37;;;9.40;99.90;;;;;;5005760;28;20216;-79
2023/05/02 05:10:46;;;;;;;12.97;11.80;;;9.40;99.90;;;;;;4998016;28;20211;-79
2023/05/02 05:13:13;;;;;;;13.80;12.30;;;9.50;99.90;;;;;;5000318;28;20208;-79
2023/05/02 05:15:43;;;;;;;12.53;11.43;;;9.70;99.90;;;;;;5003218;28;20228;-79
2023/05/02 05:18:10;;;;;;;12.43;11.43;;;9.70;99.90;;;;;;5001029;28;20311;-78
2023/05/02 05:20:38;;;;;;;12.37;11.37;;;9.80;99.90;;;;;;4999388;28;20251;-78
2023/05/02 05:23:05;;;;;;;13.03;11.93;;;9.80;99.90;;;;;;4999432;28;20607;-79
2023/05/02 05:25:32;;;;;;;12.13;11.13;;;9.90;99.90;;;;;;5003065;28;20609;-78
2023/05/02 05:27:59;;;;;;;11.20;10.10;;;9.90;99.90;;;;;;4999295;28;20336;-78
2023/05/02 05:30:27;;;;;;;12.43;10.00;;;10.00;99.90;;;;;;5002572;28;20197;-79
2023/05/02 05:32:54;;;;;;;14.73;13.33;;;10.00;99.90;;;;;;4999849;28;20658;-79
2023/05/02 05:35:21;;;;;;;12.30;11.30;;;10.00;99.90;;;;;;5001343;28;20200;-79
2023/05/02 05:37:50;;;;;;;11.83;10.83;;;10.10;99.90;;;;;;4995920;28;20221;-78
2023/05/02 05:40:18;;;;;;;11.47;10.47;;;10.10;99.90;;;;;;4999234;28;20230;-79
2023/05/02 05:42:49;;;;;;;11.10;10.10;;;10.20;99.90;;;;;;5006847;28;20196;-77
2023/05/02 05:45:23;;;;;;;9.77;8.77;;;10.30;99.90;;;;;;5012935;28;20193;-79
2023/05/02 05:47:50;;;;;;;8.40;7.60;;;10.40;99.90;;;;;;4997893;28;20232;-79
2023/05/02 05:50:17;;;;;;;9.03;8.23;;;10.50;99.90;;;;;;4999029;28;20581;-79
2023/05/02 05:52:46;;;;;;;11.83;10.27;;;10.50;99.90;;;;;;5005008;28;20235;-79
2023/05/02 05:55:15;;;;;;;12.63;9.90;;;10.60;99.90;;;;;;5004990;28;20343;-79
2023/05/02 05:57:42;;;;;;;10.87;9.87;;;10.70;99.90;;;;;;5001990;28;20229;-79
2023/05/02 06:00:11;;;;;;;9.77;8.57;;;10.80;99.90;;;;;;5004904;28;20221;-80
2023/05/02 06:02:46;;;;;;;10.67;9.67;;;10.90;99.90;;;;;;5001999;28;20640;-81
2023/05/02 06:05:20;;;;;;;9.93;8.93;;;11.00;99.90;;;;;;5004198;28;20210;-79
2023/05/02 06:07:46;;;;;;;9.87;8.97;;;11.00;99.90;;;;;;5004360;28;20317;-80
2023/05/02 06:10:15;;;;;;;9.87;8.97;;;11.00;99.90;;;;;;5000919;28;20200;-79
2023/05/02 06:12:43;;;;;;;9.57;8.70;;;10.90;99.90;;;;;;4999889;28;20712;-79
2023/05/02 06:15:11;;;;;;;11.17;10.17;;;11.00;99.90;;;;;;5001185;28;20196;-80
2023/05/02 06:17:39;;;;;;;10.57;9.67;;;11.00;99.90;;;;;;4994148;28;20226;-81
2023/05/02 06:20:08;;;;;;;11.60;10.60;;;11.20;99.90;;;;;;5002491;28;20213;-81
2023/05/02 06:22:34;;;;;;;10.80;9.90;;;11.40;99.90;;;;;;5003893;28;20205;-81
2023/05/02 06:25:01;;;;;;;9.10;8.20;;;11.60;99.90;;;;;;5012503;28;20635;-80
2023/05/02 06:27:30;;;;;;;9.13;8.33;;;11.80;99.90;;;;;;5016229;28;20253;-81
2023/05/02 06:29:56;;;;;;;9.30;8.40;;;11.90;99.90;;;;;;5022189;28;20251;-81
2023/05/02 06:32:23;;;;;;;8.77;7.97;;;12.00;99.90;;;;;;5015176;28;20227;-80
2023/05/02 06:34:50;;;;;;;8.30;7.50;;;12.10;99.90;;;;;;5016767;28;20738;-81
2023/05/02 06:37:17;;;;;;;8.73;7.93;;;12.10;99.90;;;;;;5003572;28;20220;-81
2023/05/02 06:39:43;;;;;;;8.20;7.43;;;12.30;99.90;;;;;;5015348;28;20310;-80
2023/05/02 06:42:10;;;;;;;7.90;7.20;;;12.20;99.90;;;;;;5004181;28;20360;-81
2023/05/02 06:44:38;;;;;;;7.30;6.70;;;12.20;99.90;;;;;;4997726;28;20203;-82
2023/05/02 06:47:08;;;;;;;8.13;7.43;;;12.20;99.90;;;;;;5019511;28;20246;-81
2023/05/02 06:49:35;;;;;;;7.47;6.77;;;12.10;99.90;;;;;;4995915;28;20202;-79
2023/05/02 06:52:02;;;;;;;8.57;7.27;;;12.10;99.90;;;;;;5019865;28;20274;-82
2023/05/02 06:54:28;;;;;;;7.90;7.20;;;12.00;99.90;;;;;;5008347;28;20254;-81
2023/05/02 06:56:55;;;;;;;7.63;6.93;;;12.00;99.90;;;;;;5013922;28;20222;-85
2023/05/02 06:59:22;;;;;;;8.03;7.23;;;12.00;99.90;;;;;;5003101;28;20259;-80
2023/05/02 07:01:50;;;;;;;7.83;7.07;;;12.10;99.90;;;;;;4997757;28;20355;-79
2023/05/02 07:04:17;;;;;;;7.67;6.97;;;12.10;99.90;;;;;;5001874;28;20262;-80
2023/05/02 07:06:44;;;;;;;7.70;7.00;;;12.10;99.90;;;;;;4998877;28;20208;-79
2023/05/02 07:09:10;;;;;;;7.87;7.07;;;12.10;99.90;;;;;;5005081;28;20204;-80
2023/05/02 07:11:37;;;;;;;7.93;7.13;;;12.20;99.90;;;;;;5014441;28;21534;-77
2023/05/02 07:14:04;;;;;;;7.57;6.87;;;12.30;99.90;;;;;;5014142;28;20193;-79
2023/05/02 07:16:31;;;;;;;8.30;7.50;;;12.40;99.90;;;;;;5001418;28;20262;-77
2023/05/02 07:19:00;;;;;;;7.77;7.07;;;12.60;99.90;;;;;;5015436;28;20657;-78
2023/05/02 07:21:27;;;;;;;7.93;7.13;;;12.70;99.90;;;;;;5014068;28;20247;-76
2023/05/02 07:23:56;;;;;;;7.23;6.53;;;12.90;99.90;;;;;;4998540;28;20215;-78
2023/05/02 07:26:24;;;;;;;7.20;6.50;;;13.20;99.90;;;;;;5013222;28;20189;-78
2023/05/02 07:28:50;;;;;;;8.17;7.37;;;13.50;99.90;;;;;;5000951;28;20319;-77
2023/05/02 07:31:17;;;;;;;9.13;7.37;;;13.70;99.90;;;;;;4995467;28;20748;-77
2023/05/02 07:33:44;;;;;;;7.87;6.63;;;13.80;99.90;;;;;;5002375;28;20748;-78
2023/05/02 07:36:12;;;;;;;7.60;6.90;;;13.90;99.90;;;;;;5018009;28;20259;-78
2023/05/02 07:38:39;;;;;;;6.87;6.27;;;14.00;99.90;;;;;;5015209;28;20226;-78
2023/05/02 07:41:06;;;;;;;6.90;6.27;;;14.10;99.90;;;;;;5015897;28;20225;-77
2023/05/02 07:43:32;;;;;;;7.77;7.00;;;14.10;99.90;;;;;;5011812;28;20245;-78
2023/05/02 07:46:04;;;;;;;7.00;6.40;;;14.00;99.90;;;;;;5015283;28;20200;-79
2023/05/02 07:48:31;;;;;;;7.37;6.67;;;13.90;99.90;;;;;;5005709;28;20229;-79
2023/05/02 07:51:06;;;;;;;8.33;7.53;;;13.80;99.90;;;;;;4997346;28;20245;-77
2023/05/02 07:53:34;;;;;;;8.30;6.90;;;13.80;99.90;;;;;;5016074;28;20757;-77
2023/05/02 07:56:01;;;;;;;7.97;7.23;;;13.70;99.90;;;;;;5005522;28;20209;-77
2023/05/02 07:58:28;;;;;;;9.03;8.23;;;13.70;99.90;;;;;;5015047;28;20217;-78
2023/05/02 08:00:55;;;;;;;8.47;7.67;;;13.60;99.90;;;;;;5012559;28;20225;-77
2023/05/02 08:03:22;;;;;;;9.00;7.97;;;13.60;99.90;;;;;;5013240;28;20185;-78
2023/05/02 08:05:49;;;;;;;8.17;7.47;;;13.50;99.90;;;;;;5015011;28;20208;-78
2023/05/02 08:08:16;;;;;;;8.20;7.40;;;13.40;99.90;;;;;;5015672;28;20360;-78
2023/05/02 08:10:44;;;;;;;8.13;7.33;;;13.40;99.90;;;;;;4996191;28;20201;-78
2023/05/02 08:13:11;;;;;;;8.13;7.27;;;13.40;99.90;;;;;;5016641;28;20196;-78
2023/05/02 08:15:38;;;;;;;7.83;7.13;;;13.40;99.90;;;;;;5015847;28;20201;-77
2023/05/02 08:18:05;;;;;;;7.93;7.13;;;13.50;99.90;;;;;;5021419;28;20241;-78
2023/05/02 08:20:31;;;;;;;9.27;8.47;;;13.50;99.90;;;;;;5006574;28;20266;-78
2023/05/02 08:22:58;;;;;;;9.67;8.77;;;13.40;99.90;;;;;;5002273;28;20495;-78
2023/05/02 08:25:25;;;;;;;10.50;8.60;;;13.30;99.90;;;;;;4999963;28;20319;-78
2023/05/02 08:27:53;;;;;;;9.03;8.23;;;13.30;99.90;;;;;;5015234;28;20219;-78
2023/05/02 08:30:20;;;;;;;8.90;8.10;;;13.30;99.90;;;;;;5016795;28;20225;-78
2023/05/02 08:32:47;;;;;;;9.30;8.50;;;13.30;99.90;;;;;;5014584;28;20259;-77
2023/05/02 08:35:14;;;;;;;9.87;9.07;;;13.30;99.90;;;;;;5016070;28;20198;-77
2023/05/02 08:37:40;;;;;;;9.63;8.73;;;13.40;99.90;;;;;;5021941;28;20216;-77
2023/05/02 08:40:12;;;;;;;9.60;8.70;;;13.40;99.90;;;;;;5018547;28;20275;-77
2023/05/02 08:42:42;;;;;;;9.43;8.43;;;13.50;99.90;;;;;;5016604;28;20743;-77
2023/05/02 08:45:13;;;;;;;10.83;9.30;;;13.60;99.90;;;;;;5019646;28;20242;-77
2023/05/02 08:47:40;;;;;;;9.80;8.87;;;13.80;99.90;;;;;;5000206;28;20747;-77
2023/05/02 08:50:09;;;;;;;9.60;8.70;;;13.80;99.90;;;;;;5018699;28;20671;-78
2023/05/02 08:52:37;;;;;;;10.70;8.87;;;13.90;99.90;;;;;;5017498;28;20204;-77
2023/05/02 08:55:05;;;;;;;10.03;9.00;;;14.00;99.90;;;;;;5004842;28;20653;-78
2023/05/02 08:57:32;;;;;;;9.87;8.93;;;14.10;99.90;;;;;;4994413;28;20224;-78
2023/05/02 08:59:59;;;;;;;12.90;11.57;;;14.10;99.90;;;;;;5007486;28;20569;-78
2023/05/02 09:02:44;;;;;;;11.20;10.10;;;14.00;99.90;;;;;;4992523;28;20210;-77
2023/05/02 09:05:19;;;;;;;11.47;10.37;;;13.80;99.90;;;;;;5010213;28;20215;-78
2023/05/02 09:07:47;;;;;;;10.37;9.37;;;13.80;99.90;;;;;;5020917;28;20649;-78
2023/05/02 09:10:14;;;;;;;9.93;8.90;;;13.70;99.90;;;;;;5015531;28;20636;-78
2023/05/02 09:12:41;;;;;;;10.40;8.70;;;13.80;99.90;;;;;;5000124;28;20210;-78
2023/05/02 09:15:14;;;;;;;10.37;9.23;;;13.80;99.90;;;;;;4998010;28;20287;-78
2023/05/02 09:17:44;;;;;;;10.67;9.63;;;13.90;99.90;;;;;;5015458;28;20235;-78
2023/05/02 09:20:12;;;;;;;11.30;10.20;;;13.90;99.90;;;;;;5019211;28;20275;-82
2023/05/02 09:22:39;;;;;;;10.88;9.88;;;13.90;99.90;;;;;;5000229;28;20462;-79
2023/05/02 09:25:06;;;;;;;10.88;9.82;;;14.00;99.90;;;;;;5000369;28;20509;-79
2023/05/02 09:27:48;;;;;;;12.47;11.27;;;14.10;99.90;;;;;;5023817;28;20222;-79
2023/05/02 09:30:20;;;;;;;12.57;11.37;;;14.30;99.90;;;;;;4996012;28;20203;-80
2023/05/02 09:32:51;;;;;;;12.13;11.02;;;14.50;99.90;;;;;;5004373;28;20498;-79
2023/05/02 09:35:22;;;;;;;12.47;11.17;;;14.60;99.90;;;;;;5013936;28;20216;-79
2023/05/02 09:37:53;;;;;;;11.80;10.60;;;14.70;99.90;;;;;;5007737;28;20227;-78
2023/05/02 09:40:20;;;;;;;12.17;10.90;;;14.80;99.90;;;;;;5016783;28;20203;-78
2023/05/02 09:42:47;;;;;;;11.50;10.30;;;14.90;99.90;;;;;;5020033;28;20197;-79
2023/05/02 09:45:22;;;;;;;11.73;10.60;;;14.90;99.90;;;;;;5019161;28;20299;-78
2023/05/02 09:47:51;;;;;;;12.27;10.97;;;15.00;99.90;;;;;;5017564;28;20707;-78
2023/05/02 09:50:34;;;;;;;11.37;10.27;;;15.00;99.90;;;;;;5013245;28;20568;-79
2023/05/02 09:53:02;;;;;;;11.03;9.93;;;15.00;99.90;;;;;;5014495;28;20195;-79
2023/05/02 09:55:29;;;;;;;11.90;10.70;;;15.20;99.90;;;;;;5013707;28;20192;-79
2023/05/02 09:57:56;;;;;;;12.00;10.83;;;15.40;99.90;;;;;;5000439;28;20669;-80
2023/05/02 10:00:37;;;;;;;13.20;12.00;;;15.70;99.90;;;;;;4999661;28;20324;-79
2023/05/02 10:03:06;;;;;;;13.03;11.20;;;15.80;99.90;;;;;;5015462;28;20261;-77
2023/05/02 10:05:36;;;;;;;11.80;10.70;;;16.10;99.90;;;;;;4998292;28;20676;-78
2023/05/02 10:08:05;;;;;;;13.80;12.50;;;16.50;99.90;;;;;;5008389;28;20449;-78
2023/05/02 10:10:33;;;;;;;11.73;10.53;;;16.90;99.90;;;;;;5008281;28;20219;-78
2023/05/02 10:13:00;;;;;;;10.53;9.43;;;17.20;99.90;;;;;;5006527;28;20197;-78
2023/05/02 10:15:30;;;;;;;12.13;10.93;;;17.30;99.90;;;;;;5014751;28;20189;-78
2023/05/02 10:18:00;;;;;;;12.60;10.10;;;17.40;99.90;;;;;;5018096;28;20217;-78
2023/05/02 10:20:32;;;;;;;10.17;9.17;;;17.70;99.90;;;;;;5014353;28;20201;-78
2023/05/02 10:23:00;;;;;;;8.30;7.53;;;18.10;99.90;;;;;;5017302;28;20281;-78
2023/05/02 10:25:27;;;;;;;11.67;10.50;;;18.50;99.90;;;;;;5019661;28;20230;-78
2023/05/02 10:27:56;;;;;;;11.40;10.20;;;18.40;99.90;;;;;;5016366;28;20284;-78
2023/05/02 10:30:24;;;;;;;12.60;11.30;;;18.10;99.90;;;;;;5019821;28;20196;-78
2023/05/02 10:32:52;;;;;;;11.27;9.77;;;17.80;99.90;;;;;;5001595;28;20215;-78
2023/05/02 10:35:20;;;;;;;13.30;11.93;;;17.50;99.90;;;;;;5015161;28;20194;-79
2023/05/02 10:37:49;;;;;;;11.67;10.47;;;17.10;99.90;;;;;;5005574;28;20322;-79
2023/05/02 10:40:18;;;;;;;12.43;10.20;;;17.10;99.90;;;;;;5014033;28;20233;-78
2023/05/02 10:42:49;;;;;;;10.83;9.73;;;17.00;99.90;;;;;;5002558;28;20246;-79
2023/05/02 10:45:31;;;;;;;12.67;10.63;;;17.00;99.90;;;;;;5014357;28;20197;-79
2023/05/02 10:48:18;;;;;;;12.27;11.00;;;17.10;99.90;;;;;;5004754;28;20221;-78
2023/05/02 10:50:47;;;;;;;15.67;12.70;;;17.30;99.90;;;;;;4993681;28;20296;-78
2023/05/02 10:53:26;;;;;;;15.80;14.10;;;17.30;99.90;;;;;;5003505;28;20609;-78
2023/05/02 10:56:16;;;;;;;14.07;12.68;;;17.30;99.90;;;;;;5020438;28;20530;-77
2023/05/02 10:58:44;;;;;;;12.50;11.30;;;17.20;99.90;;;;;;5010595;28;20222;-78
2023/05/02 11:01:38;;;;;;;13.53;12.20;;;17.20;99.90;;;;;;4998070;28;20245;-78
2023/05/02 11:04:07;;;;;;;13.17;11.80;;;17.40;99.90;;;;;;4989855;28;20294;-78
2023/05/02 11:06:35;;;;;;;13.55;12.45;;;18.00;99.90;;;;;;4989361;28;20460;-78
2023/05/02 11:09:33;;;;;;;11.53;10.43;;;18.20;99.90;;;;;;4999433;28;20441;-78
2023/05/02 11:12:03;;;;;;;10.27;9.17;;;18.70;99.90;;;;;;5012193;28;20266;-78
2023/05/02 11:14:43;;;;;;;13.03;11.73;;;18.80;99.90;;;;;;5013060;28;20668;-78
2023/05/02 11:17:10;;;;;;;12.40;11.30;;;18.70;99.90;;;;;;4998911;28;20461;-79
2023/05/02 11:20:25;;;;;;;15.70;14.40;;;18.50;99.90;;;;;;4996887;28;20332;-77
2023/05/02 11:22:53;;;;;;;16.10;14.70;;;18.30;99.90;;;;;;5002524;28;20239;-78
2023/05/02 11:25:36;;;;;;;13.43;12.33;;;17.90;99.90;;;;;;4999676;28;20613;-78
2023/05/02 11:28:04;;;;;;;13.20;11.10;;;18.10;99.90;;;;;;5017158;28;20216;-77
2023/05/02 11:30:39;;;;;;;15.60;14.10;;;18.30;99.90;;;;;;5000324;28;20265;-78
2023/05/02 11:33:17;;;;;;;13.07;11.97;;;18.40;99.90;;;;;;4994544;28;20196;-78
2023/05/02 11:35:45;;;;;;;14.30;13.07;;;18.50;99.90;;;;;;4995025;28;20204;-79
2023/05/02 11:38:14;;;;;;;16.70;15.10;;;18.40;99.90;;;;;;5008816;28;20301;-80
2023/05/02 11:40:50;;;;;;;14.27;13.17;;;18.40;99.90;;;;;;4998942;28;20208;-78
2023/05/02 11:43:20;;;;;;;14.37;13.10;;;18.60;99.90;;;;;;5017839;28;20271;-79
2023/05/02 11:45:47;;;;;;;13.03;11.97;;;19.00;99.90;;;;;;5014017;28;20201;-79
2023/05/02 11:48:17;;;;;;;15.10;13.70;;;19.40;99.90;;;;;;5000238;28;20220;-78
2023/05/02 11:50:44;;;;;;;16.93;15.40;;;19.40;99.90;;;;;;5015530;28;20259;-78
2023/05/02 11:53:12;;;;;;;13.70;12.60;;;18.90;99.90;;;;;;5005142;28;20216;-79
2023/05/02 11:55:47;;;;;;;15.53;14.13;;;18.70;99.90;;;;;;5017403;28;20207;-77
2023/05/02 11:58:15;;;;;;;12.53;11.50;;;18.60;99.90;;;;;;5019983;28;20648;-80
2023/05/02 12:00:45;;;;;;;10.40;8.03;;;18.40;99.90;;;;;;4999214;28;20619;-79
2023/05/02 12:03:20;;;;;;;10.13;8.90;;;18.40;99.90;;;;;;5020442;28;20251;-80
2023/05/02 12:05:47;;;;;;;8.17;7.37;;;18.20;99.90;;;;;;4999436;28;20252;-79
2023/05/02 12:08:19;;;;;;;14.50;13.20;;;18.30;99.90;;;;;;5006102;28;20249;-79
2023/05/02 12:10:47;;;;;;;10.50;9.03;;;18.30;99.90;;;;;;5016839;28;20200;-79
2023/05/02 12:13:15;;;;;;;11.03;9.93;;;18.10;99.90;;;;;;5005507;28;20203;-79
2023/05/02 12:15:42;;;;;;;11.60;8.80;;;17.90;99.90;;;;;;4998185;28;20214;-79
2023/05/02 12:18:09;;;;;;;14.33;11.80;;;17.60;99.90;;;;;;5018156;28;20231;-80
2023/05/02 12:20:37;;;;;;;18.43;16.83;;;17.60;99.90;;;;;;5018090;28;20203;-79
2023/05/02 12:23:06;;;;;;;15.97;14.53;;;17.30;99.90;;;;;;5013604;28;20226;-78
2023/05/02 12:25:37;;;;;;;13.80;12.37;;;17.10;99.90;;;;;;5015281;28;20194;-79
2023/05/02 12:28:06;;;;;;;13.57;12.17;;;17.00;99.90;;;;;;4998225;28;20664;-79
2023/05/02 12:30:33;;;;;;;12.03;11.00;;;17.00;99.90;;;;;;5014910;28;20657;-79
2023/05/02 12:33:01;;;;;;;9.83;8.87;;;17.10;99.90;;;;;;5017420;28;20204;-79
2023/05/02 12:35:29;;;;;;;10.83;9.83;;;17.20;99.90;;;;;;5018191;28;20674;-79
2023/05/02 12:38:09;;;;;;;8.83;8.00;;;17.40;99.90;;;;;;4999153;28;20220;-79
2023/05/02 12:40:36;;;;;;;9.33;8.33;;;17.70;99.90;;;;;;5019035;28;20299;-79
2023/05/02 12:43:06;;;;;;;8.70;7.80;;;18.00;99.90;;;;;;4989529;28;20207;-78
2023/05/02 12:45:34;;;;;;;10.67;8.93;;;18.30;99.90;;;;;;4998179;28;20210;-79
2023/05/02 12:48:02;;;;;;;10.10;9.17;;;18.30;99.90;;;;;;5015673;28;20350;-79
2023/05/02 12:50:36;;;;;;;10.57;9.47;;;18.40;99.90;;;;;;4997575;28;20236;-79
2023/05/02 13:20:05;;;;;;;10.90;10.00;;;18.00;99.90;;;;;;4979241;28;20202;-83